Terminal Aerodrome Forecast
Issued by NWS Charleston, WV

Current Version | Previous Version | Text Only | Print | Product List | Glossary Off
Versions: 1 2 3 4 5 6 7 8 9 10 11 12 13 14 15 16 17 18 19 20 21 22 23

000
FTUS41 KRLX 241100 RRA
TAFEKN
TAF
KEKN 241145Z 2412/2512 VRB03KT P6SM OVC050
      TEMPO 2414/2416 BKN025
     FM250400 13004KT 6SM -SHRA BR BKN040=

USA.gov is the U.S. government's official web portal to all federal, state and local government web resources and services.